Flight Track Log - Related Links

Times and Time Zones

All times are in EDT time to prevent confusion due to time zone crossing. See the KAP46 flight status page for this flight to view local times or setup timezone preferences in your user account.

Time Position Orientation Groundspeed Altitude Reporting Facility
EDT Latitude Longitude Course Direction KTS MPH feet Rate Location/Type
Sat 01:08:37 PM 44.7617 -74.7206 167° South 150 173 5,500  Level Boston Center
Sat 01:09:37 PM 44.7225 -74.7044 164° South 145 167 6,200 700 Climbing Boston Center
Sat 01:10:37 PM 44.6875 -74.6856 159° South 145 167 6,900 400 Climbing Boston Center
Sat 01:11:37 PM 44.6483 -74.6636 158° South 151 174 7,000 50 Climbing Boston Center
Sat 01:12:37 PM 44.6047 -74.6444 163° South 161 185 7,000  Level Boston Center
Sat 01:13:00 PM 44.7867 -74.7622 167° South  Level FlightAware Approximate
Sat 01:13:37 PM 44.5617 -74.6225 160° South 166 191 7,000  Level Boston Center
Sat 01:14:37 PM 44.5161 -74.6003 161° South 166 191 7,000  Level Boston Center
Sat 01:15:37 PM 44.4728 -74.5842 165° South 166 191 7,000  Level Boston Center
Sat 01:16:37 PM 44.4292 -74.5653 163° South 166 191 7,000  Level Boston Center
Sat 01:17:37 PM 44.3858 -74.5433 160° South 166 191 7,000  Level Boston Center
Sat 01:18:37 PM 44.3406 -74.5183 158° South 166 191 7,000  Level Boston Center
Sat 01:19:37 PM 44.2969 -74.5025 165° South 166 191 7,000  Level Boston Center
Sat 01:20:37 PM 44.2556 -74.4836 162° South 166 191 7,000  Level Boston Center
Sat 01:21:37 PM 44.2122 -74.4617 160° South 166 191 7,000  Level Boston Center
Sat 01:22:37 PM 44.1689 -74.4431 163° South 166 191 7,000  Level Boston Center
Sat 01:23:37 PM 44.1275 -74.4242 162° South 166 191 7,000  Level Boston Center
Sat 01:24:49 PM 44.0842 -74.4025 160° South 166 191 7,000  Level Boston Center
Sat 01:25:49 PM 44.0325 -74.3806 163° South 166 191 7,000  Level Boston Center
Sat 01:26:49 PM 43.9889 -74.3589 160° South 166 191 7,000  Level Boston Center
Sat 01:27:49 PM 43.9436 -74.3403 164° South 166 191 7,000  Level Boston Center
Sat 01:28:49 PM 43.9000 -74.3186 160° South 166 191 7,000  Level Boston Center
Sat 01:29:49 PM 43.8544 -74.3000 164° South 166 191 7,000  Level Boston Center
Sat 01:30:49 PM 43.8089 -74.2786 161° South 166 191 7,000  Level Boston Center
Sat 01:31:49 PM 43.7675 -74.2600 162° South 166 191 7,000  Level Boston Center
Sat 01:32:49 PM 43.7222 -74.2386 161° South 166 191 7,000  Level Boston Center
Sat 01:33:49 PM 43.6744 -74.2169 162° South 166 191 7,000  Level Boston Center
Sat 01:34:49 PM 43.6331 -74.1986 162° South 166 191 7,000  Level Boston Center
Sat 01:35:49 PM 43.5900 -74.1658 151° Southeast 166 191 7,000  Level Boston Center
Sat 01:36:49 PM 43.5486 -74.1331 150° Southeast 166 191 7,000  Level Boston Center
Sat 01:38:01 PM 43.5053 -74.1033 154° Southeast 177 204 7,000  Level Boston Center
Sat 01:39:01 PM 43.4556 -74.0933 172° South 170 196 7,000  Level Boston Center
Sat 01:40:01 PM 43.4117 -74.0892 176° South 170 196 7,000  Level Boston Center
Sat 01:40:42 PM 43.3722 -74.0853 176° South 166 191 7,000  Level Boston Center
Sat 01:41:55 PM 43.3206 -74.0611 161° South 166 191 7,000 -90 Level Boston Center
Sat 01:42:56 PM 43.2750 -74.0369 159° South 168 193 6,800 -382 Descending Boston Center
Sat 01:43:45 PM 43.2378 -74.0161 158° South 189 217 6,300 -655 Descending Boston Center
Sat 01:44:46 PM 43.1903 -73.9836 153° Southeast 192 221 5,600 -639 Descending Boston Center
Sat 01:45:47 PM 43.1447 -73.9539 155° Southeast 185 213 5,000 -645 Descending Boston Center
Sat 01:46:47 PM 43.0931 -73.9186 153° Southeast 189 217 4,300 -586 Descending Boston Center
Sat 01:48:00 PM 43.0394 -73.8889 158° South 184 212 3,700 -537 Descending Boston Center
Sat 01:49:01 PM 42.9917 -73.8594 156° South 175 201 3,100 -496 Descending Boston Center
Sat 01:50:01 PM 42.9483 -73.8386 161° South 170 196 2,700 -417 Descending Boston Center
Sat 01:50:56 PM 42.9047 -73.8261 168° South 170 196 2,300 -414 Descending Boston Center
Sat 01:51:57 PM 42.8589 -73.8194 174° South 165 190 1,900 -496 Descending Boston Center
Sat 01:52:57 PM 42.8131 -73.8128 174° South 157 181 1,300 -496 Descending Boston Center
Sat 01:53:58 PM 42.7819 -73.8092 175° South 101 116 900 -393 Descending Boston Center
Sat 01:55:00 PM 42.7491 -73.8020 172° South  Level Estimated
Sat 02:02:00 PM 42.7491 -73.8020 170° South  Level Estimated
Sat 02:03:00 PM 42.7491 -73.8020 170° South  Level Estimated
Sat 02:04:00 PM 42.7491 -73.8020 170° South  Level Estimated

Login

Don't have an account? Register now (free) for customized features, flight alerts, and more!